Flight Track Log - Related Links

Times and Time Zones

All times are in EDT time to prevent confusion due to time zone crossing. See the CPZ5750 flight status page for this flight to view local times or setup timezone preferences in your user account.

Time Position Orientation Groundspeed Altitude Reporting Facility
EDT Latitude Longitude Course Direction KTS MPH feet Rate Location/Type
Mon 04:31:12 PM 44.8667 -93.1167 70° East 197 227 2,600  Level Minneapolis TRACON
Mon 04:31:49 PM 44.8708 -93.0956 74° East 216 249 3,100 2,100 Climbing Minneapolis Center
Mon 04:32:52 PM 44.9517 -93.0414 25° Northeast 276 318 6,100 2,640 Climbing Minneapolis Center
Mon 04:33:00 PM 45.0393 -92.6211 68° East  Level FlightAware
Mon 04:33:54 PM 45.0292 -92.9958 23° Northeast 299 344 8,600  Level Minneapolis Center
Mon 04:34:00 PM 45.0820 -92.4715 68° East  Level FlightAware
Mon 04:35:00 PM 45.1163 -92.3185 70° East  Level FlightAware
Mon 04:35:08 PM 45.0858 -92.9058 48° Northeast 314 361 10,800  Level Minneapolis Center
Mon 04:36:00 PM 45.1540 -92.1674 70° East  Level FlightAware
Mon 04:36:10 PM 45.1503 -92.7239 63° Northeast 371 427 13,100  Level Minneapolis Center
Mon 04:37:12 PM 45.1981 -92.5875 64° Northeast 385 443 15,100 1,872 Climbing Minneapolis Center
Mon 04:38:15 PM 45.2481 -92.4467 63° Northeast 401 461 17,000 1,584 Climbing Minneapolis Center
Mon 04:39:17 PM 45.2967 -92.3056 64° Northeast 396 456 18,400 1,355 Climbing Minneapolis Center
Mon 04:40:19 PM 45.3233 -92.1450 77° East 415 478 19,800 1,355 Climbing Minneapolis Center
Mon 04:41:21 PM 45.3447 -91.9786 80° East 427 491 21,200 1,452 Climbing Minneapolis Center
Mon 04:42:23 PM 45.3731 -91.7733 79° East 438 504 22,800 1,355 Climbing Minneapolis Center
Mon 04:43:25 PM 45.3969 -91.5986 79° East 447 514 24,000 1,161 Climbing Minneapolis Center
Mon 04:44:27 PM 45.4194 -91.4206 80° East 455 524 25,200 1,065 Climbing Minneapolis Center
Mon 04:45:29 PM 45.4444 -91.2339 79° East 461 531 26,200 838 Climbing Minneapolis Center
Mon 04:46:43 PM 45.4658 -91.0500 81° East 469 540 27,100 832 Climbing Minneapolis Center
Mon 04:47:46 PM 45.4192 -90.8394 107° East 472 543 28,100 912 Climbing Minneapolis Center
Mon 04:48:48 PM 45.3550 -90.6350 114° Southeast 474 545 29,000 919 Climbing Minneapolis Center
Mon 04:49:50 PM 45.3011 -90.4619 114° Southeast 480 552 30,000 823 Climbing Minneapolis Center
Mon 04:50:52 PM 45.2469 -90.2903 114° Southeast 479 551 30,700 823 Climbing Minneapolis Center
Mon 04:51:54 PM 45.1908 -90.1186 115° Southeast 481 554 31,700 1,016 Climbing Minneapolis Center
Mon 04:52:56 PM 45.1367 -89.9494 114° Southeast 478 550 32,800 1,113 Climbing Minneapolis Center
Mon 04:53:58 PM 45.0842 -89.7831 114° Southeast 469 540 34,000 968 Climbing Minneapolis Center
Mon 04:55:00 PM 45.0247 -89.6000 115° Southeast 460 529 34,800 484 Climbing Minneapolis Center
Mon 04:56:02 PM 44.9708 -89.4356 115° Southeast 459 528 35,000 97 Climbing Minneapolis Center
Mon 04:57:04 PM 44.9158 -89.2694 115° Southeast 464 534 35,000  Level Minneapolis Center
Mon 04:58:06 PM 44.8519 -89.0761 115° Southeast 464 534 35,000  Level Minneapolis Center
Mon 04:59:08 PM 44.7978 -88.9114 115° Southeast 463 533 35,000  Level Minneapolis Center
Mon 05:00:10 PM 44.7425 -88.7472 115° Southeast 463 533 35,000  Level Minneapolis Center
Mon 05:01:12 PM 44.6867 -88.5836 116° Southeast 463 533 35,000  Level Minneapolis Center
Mon 05:02:14 PM 44.6308 -88.4194 115° Southeast 464 534 35,000  Level Minneapolis Center
Mon 05:03:16 PM 44.5758 -88.2567 115° Southeast 461 531 35,000  Level Minneapolis Center
Mon 05:04:19 PM 44.5536 -88.0469 98° East 471 542 35,000  Level Minneapolis Center
Mon 05:05:21 PM 44.5506 -87.8822 91° East 469 540 35,000  Level Minneapolis Center
Mon 05:06:23 PM 44.5483 -87.6997 91° East 469 540 35,000  Level Minneapolis Center
Mon 05:07:25 PM 44.5447 -87.4831 91° East 466 536 35,000  Level Minneapolis Center
Mon 05:08:27 PM 44.5414 -87.3019 91° East 467 537 35,000  Level Minneapolis Center
Mon 05:09:29 PM 44.5369 -87.1211 92° East 467 537 35,000  Level Minneapolis Center
Mon 05:10:31 PM 44.5322 -86.9411 92° East 467 537 35,000  Level Minneapolis Center
Mon 05:11:33 PM 44.5289 -86.7606 91° East 465 535 35,000  Level Minneapolis Center
Mon 05:12:35 PM 44.5242 -86.5442 92° East 467 537 35,000  Level Minneapolis Center
Mon 05:13:37 PM 44.5192 -86.3650 92° East 465 535 35,000  Level Minneapolis Center
Mon 05:14:39 PM 44.5136 -86.1872 92° East 464 534 35,000  Level Minneapolis Center
Mon 05:15:41 PM 44.5081 -86.0092 92° East 463 533 35,000  Level Minneapolis Center
Mon 05:16:43 PM 44.5025 -85.8306 92° East 465 535 35,000  Level Minneapolis Center
Mon 05:17:45 PM 44.4964 -85.6167 92° East 464 534 35,000  Level Minneapolis Center
Mon 05:18:49 PM 44.4897 -85.4392 93° East 461 531 35,000  Level Minneapolis Center
Mon 05:19:51 PM 44.4836 -85.2606 93° East 462 532 35,000  Level Minneapolis Center
Mon 05:20:53 PM 44.4783 -85.0822 92° East 462 532 35,000  Level Minneapolis Center
Mon 05:21:55 PM 44.4708 -84.8681 93° East 461 531 35,000  Level Minneapolis Center
Mon 05:22:57 PM 44.4619 -84.6906 94° East 460 529 35,000  Level Minneapolis Center
Mon 05:24:00 PM 44.4550 -84.5111 93° East 462 532 35,000  Level Minneapolis Center
Mon 05:25:01 PM 44.4489 -84.3697 93° East 460 529 35,000  Level Minneapolis Center
Mon 05:26:04 PM 44.4383 -84.1531 94° East 467 537 35,000  Level Minneapolis Center
Mon 05:27:06 PM 44.4319 -83.9722 93° East 467 537 35,000  Level Minneapolis Center
Mon 05:28:08 PM 44.4214 -83.7581 94° East 463 533 35,000  Level Minneapolis Center
Mon 05:29:10 PM 44.4114 -83.5786 94° East 463 533 35,000  Level Minneapolis Center
Mon 05:30:24 PM 44.4017 -83.4000 94° East 462 532 35,000  Level Minneapolis Center
Mon 05:31:27 PM 44.3906 -83.1861 94° East 462 532 35,000  Level Minneapolis Center
Mon 05:32:28 PM 44.3828 -83.0422 94° East 464 534 35,000  Level Minneapolis Center
Mon 05:33:20 PM 44.3500 -82.8333 102° East 460 529 35,000  Level Toronto Center
Mon 05:34:20 PM 44.3500 -82.6333 90° East 460 529 35,000  Level Toronto Center
Mon 05:35:20 PM 44.3333 -82.4500 97° East 460 529 35,000  Level Toronto Center
Mon 05:36:20 PM 44.3167 -82.2833 98° East 460 529 35,000  Level Toronto Center
Mon 05:37:20 PM 44.2833 -82.1000 104° East 460 529 35,000  Level Toronto Center
Mon 05:38:20 PM 44.2333 -81.9333 113° Southeast 460 529 35,000  Level Toronto Center
Mon 05:39:20 PM 44.2000 -81.7667 106° East 460 529 35,000  Level Toronto Center
Mon 05:40:20 PM 44.1667 -81.6167 107° East 460 529 35,000  Level Toronto Center
Mon 05:41:20 PM 44.1167 -81.4500 113° Southeast 450 518 35,000  Level Toronto Center
Mon 05:42:20 PM 44.0667 -81.2833 113° Southeast 450 518 35,000  Level Toronto Center
Mon 05:43:20 PM 44.0333 -81.1167 105° East 450 518 35,000  Level Toronto Center
Mon 05:44:20 PM 43.9833 -80.9333 111° Southeast 450 518 35,000  Level Toronto Center
Mon 05:45:20 PM 43.9667 -80.7667 98° East 450 518 35,000  Level Toronto Center
Mon 05:46:20 PM 43.9167 -80.6333 117° Southeast 450 518 35,000  Level Toronto Center
Mon 05:47:20 PM 43.8667 -80.4500 111° Southeast 450 518 35,000  Level Toronto Center
Mon 05:48:20 PM 43.8333 -80.2833 105° East 450 518 35,000  Level Toronto Center
Mon 05:49:20 PM 43.7833 -80.1167 113° Southeast 450 518 35,000  Level Toronto Center
Mon 05:50:20 PM 43.7333 -79.9500 112° Southeast 450 518 35,000  Level Toronto Center
Mon 05:51:20 PM 43.7000 -79.8000 107° East 450 518 35,000  Level Toronto Center
Mon 05:52:20 PM 43.6500 -79.6333 112° Southeast 460 529 35,000  Level Toronto Center
Mon 05:53:20 PM 43.6333 -79.4500 97° East 470 541 35,000  Level Toronto Center
Mon 05:54:20 PM 43.6000 -79.2833 105° East 440 506 35,000  Level Toronto Center
Mon 05:55:20 PM 43.5833 -79.1333 99° East 450 518 35,000  Level Toronto Center
Mon 05:56:20 PM 43.5667 -78.9500 97° East 460 529 35,000  Level Toronto Center
Mon 05:57:20 PM 43.5333 -78.7667 104° East 450 518 35,000  Level Toronto Center
Mon 05:58:20 PM 43.5167 -78.6000 98° East 450 518 35,000 -50 Level Toronto Center
Mon 05:59:20 PM 43.4833 -78.4167 104° East 450 518 34,900 -341 Descending Toronto Center
Mon 06:00:23 PM 43.4750 -78.2719 94° East 450 518 34,300 -732 Descending Cleveland Center
Mon 06:01:23 PM 43.4508 -78.1042 101° East 450 518 33,400 -1,000 Descending Cleveland Center
Mon 06:02:23 PM 43.4261 -77.9306 101° East 450 518 32,300 -1,100 Descending Cleveland Center
Mon 06:03:23 PM 43.4011 -77.7575 101° East 450 518 31,200 -1,075 Descending Cleveland Center
Mon 06:05:16 PM 43.3553 -77.4556 102° East 451 519 29,200 -763 Descending Boston Center
Mon 06:06:16 PM 43.3292 -77.2847 102° East 456 525 29,000 -97 Descending Boston Center
Mon 06:07:20 PM 43.2833 -77.0500 105° East 460 529 29,000  Level Toronto Center
Mon 06:08:20 PM 43.2667 -76.8667 97° East 460 529 29,000  Level Toronto Center
Mon 06:09:20 PM 43.2500 -76.7000 98° East 460 529 29,000  Level Toronto Center
Mon 06:10:20 PM 43.2000 -76.5500 115° Southeast 460 529 29,000 -400 Level Toronto Center
Mon 06:11:20 PM 43.1833 -76.3667 97° East 460 529 28,200 -879 Descending Toronto Center
Mon 06:12:16 PM 43.1686 -76.2439 99° East 456 525 27,300 -1,086 Descending Boston Center
Mon 06:13:16 PM 43.1428 -76.0772 102° East 456 525 26,100 -1,350 Descending Boston Center
Mon 06:14:16 PM 43.1144 -75.9103 103° East 451 519 24,600 -1,500 Descending Boston Center
Mon 06:15:16 PM 43.0903 -75.7497 102° East 445 512 23,100 -1,500 Descending Boston Center
Mon 06:16:16 PM 43.0614 -75.5889 104° East 438 504 21,600 -1,650 Descending Boston Center
Mon 06:17:16 PM 43.0364 -75.4372 103° East 427 491 19,800 -1,750 Descending Boston Center
Mon 06:18:16 PM 43.0108 -75.2881 103° East 414 476 18,100 -1,500 Descending Boston Center
Mon 06:19:28 PM 42.9853 -75.1450 104° East 398 458 16,500 -1,740 Descending Boston Center
Mon 06:20:27 PM 42.9578 -74.9736 102° East 411 473 14,300 -1,850 Descending Boston Center
Mon 06:21:28 PM 42.9439 -74.8483 99° East 374 430 12,800 -1,559 Descending Boston Center
Mon 06:22:34 PM 42.9347 -74.6861 94° East 361 415 11,000 -850 Descending Boston Center
Mon 06:23:35 PM 42.9269 -74.5525 95° East 360 414 11,000  Level Boston Center
Mon 06:24:35 PM 42.9169 -74.4047 95° East 360 414 11,000 -446 Level Boston Center
Mon 06:25:36 PM 42.9108 -74.2769 94° East 329 379 10,100 -1,008 Descending Boston Center
Mon 06:26:40 PM 42.9058 -74.1919 95° East 320 368 8,900 -1,548 Descending Boston Center
Mon 06:27:40 PM 42.8975 -74.0469 94° East 298 343 6,900 -1,881 Descending Boston Center
Mon 06:28:38 PM 42.8928 -73.9450 94° East 281 323 5,200 -1,714 Descending Boston Center
Mon 06:29:39 PM 42.8878 -73.8400 94° East 280 322 3,500 -1,475 Descending Boston Center
Mon 06:30:40 PM 42.8828 -73.7294 93° East 277 319 2,200 -645 Descending Boston Center
Mon 06:31:40 PM 42.8628 -73.6667 113° Southeast 244 281 2,200  Level Boston Center
Mon 06:32:40 PM 42.8153 -73.6317 152° Southeast 201 231 2,200  Level Boston Center
Mon 06:33:40 PM 42.7611 -73.6194 171° South 183 211 2,200  Level Boston Center

Login

Don't have an account? Register now (free) for customized features, flight alerts, and more!